sensor_id;sensor_type;location;lat;lon;timestamp;P1;durP1;ratioP1;P2;durP2;ratioP2
59159;SDS011;44941;45.058;20.076;2023-10-09T00:02:11;6.10;;;1.55;;
59159;SDS011;44941;45.058;20.076;2023-10-09T00:04:39;2.35;;;0.80;;
59159;SDS011;44941;45.058;20.076;2023-10-09T00:07:10;7.15;;;1.23;;
59159;SDS011;44941;45.058;20.076;2023-10-09T00:09:37;4.88;;;0.90;;
59159;SDS011;44941;45.058;20.076;2023-10-09T00:12:15;3.58;;;1.17;;
59159;SDS011;44941;45.058;20.076;2023-10-09T00:14:47;13.15;;;6.18;;
59159;SDS011;44941;45.058;20.076;2023-10-09T00:17:16;13.32;;;6.32;;
59159;SDS011;44941;45.058;20.076;2023-10-09T00:19:45;8.55;;;4.38;;
59159;SDS011;44941;45.058;20.076;2023-10-09T00:22:24;12.07;;;5.00;;
59159;SDS011;44941;45.058;20.076;2023-10-09T00:24:51;13.25;;;5.95;;
59159;SDS011;44941;45.058;20.076;2023-10-09T00:27:34;15.13;;;8.38;;
59159;SDS011;44941;45.058;20.076;2023-10-09T00:30:01;15.45;;;8.40;;
59159;SDS011;44941;45.058;20.076;2023-10-09T00:32:31;8.45;;;4.38;;
59159;SDS011;44941;45.058;20.076;2023-10-09T00:35:02;7.25;;;3.00;;
59159;SDS011;44941;45.058;20.076;2023-10-09T00:37:48;9.05;;;4.32;;
59159;SDS011;44941;45.058;20.076;2023-10-09T00:40:16;7.93;;;3.83;;
59159;SDS011;44941;45.058;20.076;2023-10-09T00:42:48;9.52;;;4.30;;
59159;SDS011;44941;45.058;20.076;2023-10-09T00:45:14;7.90;;;4.50;;
59159;SDS011;44941;45.058;20.076;2023-10-09T00:47:50;7.88;;;4.07;;
59159;SDS011;44941;45.058;20.076;2023-10-09T00:50:21;19.38;;;10.15;;
59159;SDS011;44941;45.058;20.076;2023-10-09T00:52:49;12.95;;;5.63;;
59159;SDS011;44941;45.058;20.076;2023-10-09T00:55:18;8.48;;;3.28;;
59159;SDS011;44941;45.058;20.076;2023-10-09T00:58:02;6.90;;;3.03;;
59159;SDS011;44941;45.058;20.076;2023-10-09T01:00:35;5.55;;;2.00;;
59159;SDS011;44941;45.058;20.076;2023-10-09T01:03:10;8.50;;;3.80;;
59159;SDS011;44941;45.058;20.076;2023-10-09T01:05:43;8.65;;;2.88;;
59159;SDS011;44941;45.058;20.076;2023-10-09T01:08:39;9.55;;;4.35;;
59159;SDS011;44941;45.058;20.076;2023-10-09T01:13:38;6.72;;;1.80;;
59159;SDS011;44941;45.058;20.076;2023-10-09T01:16:25;7.95;;;1.65;;
59159;SDS011;44941;45.058;20.076;2023-10-09T01:18:54;6.03;;;1.70;;
59159;SDS011;44941;45.058;20.076;2023-10-09T01:21:25;3.38;;;1.23;;
59159;SDS011;44941;45.058;20.076;2023-10-09T01:23:52;4.40;;;1.45;;
59159;SDS011;44941;45.058;20.076;2023-10-09T01:26:39;4.70;;;1.38;;
59159;SDS011;44941;45.058;20.076;2023-10-09T01:31:43;4.45;;;1.33;;
59159;SDS011;44941;45.058;20.076;2023-10-09T01:34:16;3.70;;;1.30;;
59159;SDS011;44941;45.058;20.076;2023-10-09T01:36:43;6.27;;;2.10;;
59159;SDS011;44941;45.058;20.076;2023-10-09T01:39:14;7.90;;;2.10;;
59159;SDS011;44941;45.058;20.076;2023-10-09T01:41:51;8.18;;;1.52;;
59159;SDS011;44941;45.058;20.076;2023-10-09T01:44:23;7.72;;;1.90;;
59159;SDS011;44941;45.058;20.076;2023-10-09T01:46:51;6.82;;;1.85;;
59159;SDS011;44941;45.058;20.076;2023-10-09T01:49:21;5.75;;;1.80;;
59159;SDS011;44941;45.058;20.076;2023-10-09T01:51:55;4.80;;;1.88;;
59159;SDS011;44941;45.058;20.076;2023-10-09T01:54:25;5.82;;;2.05;;
59159;SDS011;44941;45.058;20.076;2023-10-09T01:57:02;3.70;;;1.70;;
59159;SDS011;44941;45.058;20.076;2023-10-09T01:59:35;6.85;;;2.08;;
59159;SDS011;44941;45.058;20.076;2023-10-09T02:02:09;8.35;;;4.00;;
59159;SDS011;44941;45.058;20.076;2023-10-09T02:05:05;9.82;;;5.35;;
59159;SDS011;44941;45.058;20.076;2023-10-09T02:07:38;7.50;;;3.53;;
59159;SDS011;44941;45.058;20.076;2023-10-09T02:10:17;5.25;;;1.95;;
59159;SDS011;44941;45.058;20.076;2023-10-09T02:12:50;6.47;;;2.10;;
59159;SDS011;44941;45.058;20.076;2023-10-09T02:15:19;4.75;;;1.92;;
59159;SDS011;44941;45.058;20.076;2023-10-09T02:18:05;6.00;;;2.17;;
59159;SDS011;44941;45.058;20.076;2023-10-09T02:23:25;4.10;;;1.60;;
59159;SDS011;44941;45.058;20.076;2023-10-09T02:26:03;5.47;;;1.73;;
59159;SDS011;44941;45.058;20.076;2023-10-09T02:28:31;6.00;;;1.80;;
59159;SDS011;44941;45.058;20.076;2023-10-09T02:30:58;7.10;;;1.75;;
59159;SDS011;44941;45.058;20.076;2023-10-09T02:33:26;3.58;;;1.55;;
59159;SDS011;44941;45.058;20.076;2023-10-09T02:35:53;10.80;;;1.67;;
59159;SDS011;44941;45.058;20.076;2023-10-09T02:38:20;5.73;;;1.97;;
59159;SDS011;44941;45.058;20.076;2023-10-09T02:40:50;2.95;;;1.40;;
59159;SDS011;44941;45.058;20.076;2023-10-09T02:43:28;5.53;;;1.60;;
59159;SDS011;44941;45.058;20.076;2023-10-09T02:46:12;10.98;;;1.80;;
59159;SDS011;44941;45.058;20.076;2023-10-09T02:48:42;4.32;;;1.42;;
59159;SDS011;44941;45.058;20.076;2023-10-09T02:51:15;5.13;;;1.65;;
59159;SDS011;44941;45.058;20.076;2023-10-09T02:53:51;5.00;;;1.70;;
59159;SDS011;44941;45.058;20.076;2023-10-09T02:56:17;6.03;;;1.80;;
59159;SDS011;44941;45.058;20.076;2023-10-09T02:58:52;6.68;;;2.03;;
59159;SDS011;44941;45.058;20.076;2023-10-09T03:01:19;5.18;;;1.70;;
59159;SDS011;44941;45.058;20.076;2023-10-09T03:03:45;6.80;;;1.50;;
59159;SDS011;44941;45.058;20.076;2023-10-09T03:06:13;4.23;;;1.73;;
59159;SDS011;44941;45.058;20.076;2023-10-09T03:08:51;5.97;;;1.90;;
59159;SDS011;44941;45.058;20.076;2023-10-09T03:11:20;7.28;;;1.98;;
59159;SDS011;44941;45.058;20.076;2023-10-09T03:13:46;5.72;;;1.80;;
59159;SDS011;44941;45.058;20.076;2023-10-09T03:16:12;5.22;;;1.67;;
59159;SDS011;44941;45.058;20.076;2023-10-09T03:18:47;6.13;;;2.05;;
59159;SDS011;44941;45.058;20.076;2023-10-09T03:21:14;6.18;;;2.00;;
59159;SDS011;44941;45.058;20.076;2023-10-09T03:23:42;5.82;;;1.77;;
59159;SDS011;44941;45.058;20.076;2023-10-09T03:26:09;4.47;;;1.70;;
59159;SDS011;44941;45.058;20.076;2023-10-09T03:28:36;4.28;;;1.55;;
59159;SDS011;44941;45.058;20.076;2023-10-09T03:31:02;5.72;;;1.80;;
59159;SDS011;44941;45.058;20.076;2023-10-09T03:33:30;5.43;;;1.73;;
59159;SDS011;44941;45.058;20.076;2023-10-09T03:36:01;8.25;;;1.90;;
59159;SDS011;44941;45.058;20.076;2023-10-09T03:38:27;5.53;;;2.08;;
59159;SDS011;44941;45.058;20.076;2023-10-09T03:41:02;6.38;;;1.70;;
59159;SDS011;44941;45.058;20.076;2023-10-09T03:43:35;4.90;;;1.63;;
59159;SDS011;44941;45.058;20.076;2023-10-09T03:48:48;5.72;;;1.92;;
59159;SDS011;44941;45.058;20.076;2023-10-09T03:51:14;5.20;;;1.65;;
59159;SDS011;44941;45.058;20.076;2023-10-09T03:53:46;4.45;;;1.77;;
59159;SDS011;44941;45.058;20.076;2023-10-09T03:56:12;3.75;;;1.60;;
59159;SDS011;44941;45.058;20.076;2023-10-09T04:01:17;6.63;;;2.05;;
59159;SDS011;44941;45.058;20.076;2023-10-09T04:03:53;4.53;;;1.58;;
59159;SDS011;44941;45.058;20.076;2023-10-09T04:06:28;4.95;;;1.80;;
59159;SDS011;44941;45.058;20.076;2023-10-09T04:09:01;5.97;;;1.80;;
59159;SDS011;44941;45.058;20.076;2023-10-09T04:11:46;5.95;;;2.35;;
59159;SDS011;44941;45.058;20.076;2023-10-09T04:14:15;7.20;;;1.85;;
59159;SDS011;44941;45.058;20.076;2023-10-09T04:16:51;6.57;;;2.00;;
59159;SDS011;44941;45.058;20.076;2023-10-09T04:19:28;7.40;;;1.95;;
59159;SDS011;44941;45.058;20.076;2023-10-09T04:21:54;5.03;;;2.08;;
59159;SDS011;44941;45.058;20.076;2023-10-09T04:24:23;4.55;;;1.73;;
59159;SDS011;44941;45.058;20.076;2023-10-09T04:26:50;4.68;;;1.75;;
59159;SDS011;44941;45.058;20.076;2023-10-09T04:29:21;5.20;;;1.75;;
59159;SDS011;44941;45.058;20.076;2023-10-09T04:31:56;4.72;;;1.67;;
59159;SDS011;44941;45.058;20.076;2023-10-09T04:34:26;4.65;;;1.98;;
59159;SDS011;44941;45.058;20.076;2023-10-09T04:37:13;7.10;;;1.83;;
59159;SDS011;44941;45.058;20.076;2023-10-09T04:39:40;6.50;;;1.95;;
59159;SDS011;44941;45.058;20.076;2023-10-09T04:42:12;7.05;;;1.83;;
59159;SDS011;44941;45.058;20.076;2023-10-09T04:44:51;6.10;;;1.70;;
59159;SDS011;44941;45.058;20.076;2023-10-09T04:47:30;5.78;;;2.10;;
59159;SDS011;44941;45.058;20.076;2023-10-09T04:50:03;13.32;;;6.25;;
59159;SDS011;44941;45.058;20.076;2023-10-09T04:52:36;13.55;;;5.28;;
59159;SDS011;44941;45.058;20.076;2023-10-09T04:55:03;9.82;;;4.72;;
59159;SDS011;44941;45.058;20.076;2023-10-09T04:57:42;9.30;;;3.38;;
59159;SDS011;44941;45.058;20.076;2023-10-09T05:00:11;6.82;;;2.80;;
59159;SDS011;44941;45.058;20.076;2023-10-09T05:02:50;7.43;;;2.67;;
59159;SDS011;44941;45.058;20.076;2023-10-09T05:05:24;7.65;;;3.05;;
59159;SDS011;44941;45.058;20.076;2023-10-09T05:08:06;8.13;;;2.60;;
59159;SDS011;44941;45.058;20.076;2023-10-09T05:10:58;11.82;;;2.47;;
59159;SDS011;44941;45.058;20.076;2023-10-09T05:13:28;10.40;;;2.50;;
59159;SDS011;44941;45.058;20.076;2023-10-09T05:18:59;11.55;;;2.92;;
59159;SDS011;44941;45.058;20.076;2023-10-09T05:23:57;10.73;;;2.28;;
59159;SDS011;44941;45.058;20.076;2023-10-09T05:26:39;5.13;;;1.80;;
59159;SDS011;44941;45.058;20.076;2023-10-09T05:29:11;5.97;;;1.90;;
59159;SDS011;44941;45.058;20.076;2023-10-09T05:31:48;8.63;;;2.40;;
59159;SDS011;44941;45.058;20.076;2023-10-09T05:34:22;7.45;;;2.17;;
59159;SDS011;44941;45.058;20.076;2023-10-09T05:36:49;9.45;;;2.33;;
59159;SDS011;44941;45.058;20.076;2023-10-09T05:39:15;6.95;;;1.80;;
59159;SDS011;44941;45.058;20.076;2023-10-09T05:42:04;7.75;;;1.98;;
59159;SDS011;44941;45.058;20.076;2023-10-09T05:44:35;8.68;;;2.20;;
59159;SDS011;44941;45.058;20.076;2023-10-09T05:47:19;7.13;;;1.92;;
59159;SDS011;44941;45.058;20.076;2023-10-09T05:49:54;8.60;;;2.45;;
59159;SDS011;44941;45.058;20.076;2023-10-09T05:52:41;6.97;;;2.58;;
59159;SDS011;44941;45.058;20.076;2023-10-09T05:55:07;12.35;;;2.85;;
59159;SDS011;44941;45.058;20.076;2023-10-09T05:57:56;7.43;;;2.85;;
59159;SDS011;44941;45.058;20.076;2023-10-09T06:00:41;17.05;;;3.67;;
59159;SDS011;44941;45.058;20.076;2023-10-09T06:03:26;9.13;;;2.67;;
59159;SDS011;44941;45.058;20.076;2023-10-09T06:06:10;15.60;;;3.20;;
59159;SDS011;44941;45.058;20.076;2023-10-09T06:08:43;8.00;;;2.30;;
59159;SDS011;44941;45.058;20.076;2023-10-09T06:11:10;6.25;;;2.30;;
59159;SDS011;44941;45.058;20.076;2023-10-09T06:13:57;11.60;;;2.83;;
59159;SDS011;44941;45.058;20.076;2023-10-09T06:16:29;13.80;;;4.25;;
59159;SDS011;44941;45.058;20.076;2023-10-09T06:21:44;10.77;;;3.35;;
59159;SDS011;44941;45.058;20.076;2023-10-09T06:24:17;7.60;;;2.65;;
59159;SDS011;44941;45.058;20.076;2023-10-09T06:26:44;8.00;;;2.50;;
59159;SDS011;44941;45.058;20.076;2023-10-09T06:29:36;10.10;;;2.40;;
59159;SDS011;44941;45.058;20.076;2023-10-09T06:32:22;9.10;;;2.70;;
59159;SDS011;44941;45.058;20.076;2023-10-09T06:34:57;10.00;;;3.15;;
59159;SDS011;44941;45.058;20.076;2023-10-09T06:37:43;7.40;;;2.63;;
59159;SDS011;44941;45.058;20.076;2023-10-09T06:40:28;7.82;;;2.20;;
59159;SDS011;44941;45.058;20.076;2023-10-09T06:43:13;7.63;;;2.13;;
59159;SDS011;44941;45.058;20.076;2023-10-09T06:45:44;6.03;;;2.03;;
59159;SDS011;44941;45.058;20.076;2023-10-09T06:48:11;7.70;;;1.90;;
59159;SDS011;44941;45.058;20.076;2023-10-09T06:50:56;8.45;;;2.28;;
59159;SDS011;44941;45.058;20.076;2023-10-09T06:53:32;7.47;;;2.50;;
59159;SDS011;44941;45.058;20.076;2023-10-09T06:56:17;17.55;;;6.60;;
59159;SDS011;44941;45.058;20.076;2023-10-09T06:58:56;20.55;;;9.55;;
59159;SDS011;44941;45.058;20.076;2023-10-09T07:01:29;19.35;;;7.05;;
59159;SDS011;44941;45.058;20.076;2023-10-09T07:04:04;10.20;;;4.57;;
59159;SDS011;44941;45.058;20.076;2023-10-09T07:06:56;7.78;;;3.10;;
59159;SDS011;44941;45.058;20.076;2023-10-09T07:12:07;11.90;;;4.40;;
59159;SDS011;44941;45.058;20.076;2023-10-09T07:14:38;9.52;;;3.22;;
59159;SDS011;44941;45.058;20.076;2023-10-09T07:17:05;9.38;;;2.65;;
59159;SDS011;44941;45.058;20.076;2023-10-09T07:19:50;5.50;;;2.08;;
59159;SDS011;44941;45.058;20.076;2023-10-09T07:22:17;7.60;;;2.20;;
59159;SDS011;44941;45.058;20.076;2023-10-09T07:24:49;6.53;;;2.13;;
59159;SDS011;44941;45.058;20.076;2023-10-09T07:27:23;6.70;;;2.13;;
59159;SDS011;44941;45.058;20.076;2023-10-09T07:30:08;6.75;;;2.50;;
59159;SDS011;44941;45.058;20.076;2023-10-09T07:33:07;7.78;;;2.58;;
59159;SDS011;44941;45.058;20.076;2023-10-09T07:35:40;8.10;;;2.30;;
59159;SDS011;44941;45.058;20.076;2023-10-09T07:38:10;8.90;;;2.60;;
59159;SDS011;44941;45.058;20.076;2023-10-09T07:40:37;6.43;;;2.53;;
59159;SDS011;44941;45.058;20.076;2023-10-09T07:43:41;8.10;;;2.97;;
59159;SDS011;44941;45.058;20.076;2023-10-09T07:46:11;6.32;;;3.00;;
59159;SDS011;44941;45.058;20.076;2023-10-09T07:48:58;9.15;;;3.08;;
59159;SDS011;44941;45.058;20.076;2023-10-09T07:51:26;9.40;;;3.35;;
59159;SDS011;44941;45.058;20.076;2023-10-09T07:54:01;9.43;;;3.50;;
59159;SDS011;44941;45.058;20.076;2023-10-09T07:56:35;11.65;;;3.72;;
59159;SDS011;44941;45.058;20.076;2023-10-09T07:59:11;8.90;;;3.90;;
59159;SDS011;44941;45.058;20.076;2023-10-09T08:01:40;9.80;;;4.05;;
59159;SDS011;44941;45.058;20.076;2023-10-09T08:04:22;18.75;;;9.38;;
59159;SDS011;44941;45.058;20.076;2023-10-09T08:07:09;19.23;;;9.00;;
59159;SDS011;44941;45.058;20.076;2023-10-09T08:09:47;21.52;;;10.05;;
59159;SDS011;44941;45.058;20.076;2023-10-09T08:12:16;20.23;;;7.50;;
59159;SDS011;44941;45.058;20.076;2023-10-09T08:15:02;15.63;;;5.97;;
59159;SDS011;44941;45.058;20.076;2023-10-09T08:17:40;11.68;;;5.47;;
59159;SDS011;44941;45.058;20.076;2023-10-09T08:20:13;11.95;;;4.82;;
59159;SDS011;44941;45.058;20.076;2023-10-09T08:22:42;9.13;;;4.00;;
59159;SDS011;44941;45.058;20.076;2023-10-09T08:25:12;7.75;;;3.15;;
59159;SDS011;44941;45.058;20.076;2023-10-09T08:27:58;8.68;;;3.30;;
59159;SDS011;44941;45.058;20.076;2023-10-09T08:30:45;8.30;;;3.35;;
59159;SDS011;44941;45.058;20.076;2023-10-09T08:33:18;11.50;;;4.05;;
59159;SDS011;44941;45.058;20.076;2023-10-09T08:35:53;15.10;;;3.70;;
59159;SDS011;44941;45.058;20.076;2023-10-09T08:38:33;9.18;;;3.60;;
59159;SDS011;44941;45.058;20.076;2023-10-09T08:41:20;10.02;;;3.90;;
59159;SDS011;44941;45.058;20.076;2023-10-09T08:43:51;11.15;;;3.20;;
59159;SDS011;44941;45.058;20.076;2023-10-09T08:46:22;10.18;;;3.03;;
59159;SDS011;44941;45.058;20.076;2023-10-09T08:48:48;5.80;;;2.20;;
59159;SDS011;44941;45.058;20.076;2023-10-09T08:51:16;12.70;;;2.65;;
59159;SDS011;44941;45.058;20.076;2023-10-09T08:53:45;6.80;;;2.50;;
59159;SDS011;44941;45.058;20.076;2023-10-09T08:56:13;5.97;;;2.17;;
59159;SDS011;44941;45.058;20.076;2023-10-09T08:58:40;11.82;;;2.70;;
59159;SDS011;44941;45.058;20.076;2023-10-09T09:01:06;6.68;;;2.53;;
59159;SDS011;44941;45.058;20.076;2023-10-09T09:03:39;12.07;;;2.40;;
59159;SDS011;44941;45.058;20.076;2023-10-09T09:06:09;8.45;;;2.60;;
59159;SDS011;44941;45.058;20.076;2023-10-09T09:08:36;16.70;;;4.07;;
59159;SDS011;44941;45.058;20.076;2023-10-09T09:11:09;11.40;;;3.10;;
59159;SDS011;44941;45.058;20.076;2023-10-09T09:14:02;9.90;;;3.50;;
59159;SDS011;44941;45.058;20.076;2023-10-09T09:16:43;14.05;;;3.00;;
59159;SDS011;44941;45.058;20.076;2023-10-09T09:19:13;34.95;;;3.70;;
59159;SDS011;44941;45.058;20.076;2023-10-09T09:21:43;21.65;;;3.50;;
59159;SDS011;44941;45.058;20.076;2023-10-09T09:24:14;26.83;;;4.20;;
59159;SDS011;44941;45.058;20.076;2023-10-09T09:29:14;27.83;;;4.00;;
59159;SDS011;44941;45.058;20.076;2023-10-09T09:31:53;15.55;;;4.03;;
59159;SDS011;44941;45.058;20.076;2023-10-09T09:34:20;15.73;;;3.60;;
59159;SDS011;44941;45.058;20.076;2023-10-09T09:36:54;17.52;;;3.13;;
59159;SDS011;44941;45.058;20.076;2023-10-09T09:39:22;55.67;;;5.88;;
59159;SDS011;44941;45.058;20.076;2023-10-09T09:41:59;19.42;;;3.08;;
59159;SDS011;44941;45.058;20.076;2023-10-09T09:44:39;19.02;;;3.70;;
59159;SDS011;44941;45.058;20.076;2023-10-09T09:47:09;17.73;;;3.13;;
59159;SDS011;44941;45.058;20.076;2023-10-09T09:49:38;6.90;;;2.40;;
59159;SDS011;44941;45.058;20.076;2023-10-09T09:52:06;12.38;;;2.33;;
59159;SDS011;44941;45.058;20.076;2023-10-09T09:54:35;8.55;;;2.50;;
59159;SDS011;44941;45.058;20.076;2023-10-09T09:59:34;126.75;;;11.32;;
59159;SDS011;44941;45.058;20.076;2023-10-09T10:02:05;19.20;;;3.22;;
59159;SDS011;44941;45.058;20.076;2023-10-09T10:04:31;51.97;;;5.93;;
59159;SDS011;44941;45.058;20.076;2023-10-09T10:07:00;54.10;;;5.18;;
59159;SDS011;44941;45.058;20.076;2023-10-09T10:09:34;48.05;;;5.55;;
59159;SDS011;44941;45.058;20.076;2023-10-09T10:12:04;47.75;;;5.18;;
59159;SDS011;44941;45.058;20.076;2023-10-09T10:23:30;11.07;;;3.10;;
59159;SDS011;44941;45.058;20.076;2023-10-09T10:26:21;19.38;;;4.15;;
59159;SDS011;44941;45.058;20.076;2023-10-09T10:34:23;8.88;;;3.00;;
59159;SDS011;44941;45.058;20.076;2023-10-09T10:36:50;12.80;;;3.23;;
59159;SDS011;44941;45.058;20.076;2023-10-09T10:39:22;17.50;;;3.05;;
59159;SDS011;44941;45.058;20.076;2023-10-09T10:42:07;11.27;;;3.10;;
59159;SDS011;44941;45.058;20.076;2023-10-09T10:45:03;11.50;;;3.35;;
59159;SDS011;44941;45.058;20.076;2023-10-09T10:47:53;9.85;;;2.72;;
59159;SDS011;44941;45.058;20.076;2023-10-09T10:50:23;7.97;;;2.72;;
59159;SDS011;44941;45.058;20.076;2023-10-09T10:53:14;21.10;;;3.75;;
59159;SDS011;44941;45.058;20.076;2023-10-09T10:55:59;13.07;;;4.93;;
59159;SDS011;44941;45.058;20.076;2023-10-09T10:58:53;17.65;;;4.50;;
59159;SDS011;44941;45.058;20.076;2023-10-09T11:01:37;27.08;;;4.13;;
59159;SDS011;44941;45.058;20.076;2023-10-09T11:04:23;23.90;;;4.80;;
59159;SDS011;44941;45.058;20.076;2023-10-09T11:06:52;24.10;;;4.28;;
59159;SDS011;44941;45.058;20.076;2023-10-09T11:09:25;18.80;;;3.72;;
59159;SDS011;44941;45.058;20.076;2023-10-09T11:12:04;31.63;;;4.63;;
59159;SDS011;44941;45.058;20.076;2023-10-09T11:14:49;5.95;;;2.28;;
59159;SDS011;44941;45.058;20.076;2023-10-09T11:17:34;15.38;;;4.15;;
59159;SDS011;44941;45.058;20.076;2023-10-09T11:20:02;20.00;;;4.60;;
59159;SDS011;44941;45.058;20.076;2023-10-09T11:22:48;10.52;;;3.10;;
59159;SDS011;44941;45.058;20.076;2023-10-09T11:25:33;14.45;;;3.92;;
59159;SDS011;44941;45.058;20.076;2023-10-09T11:28:00;16.47;;;3.13;;
59159;SDS011;44941;45.058;20.076;2023-10-09T11:30:46;13.80;;;4.00;;
59159;SDS011;44941;45.058;20.076;2023-10-09T11:33:12;16.38;;;4.30;;
59159;SDS011;44941;45.058;20.076;2023-10-09T11:35:42;11.57;;;4.72;;
59159;SDS011;44941;45.058;20.076;2023-10-09T11:38:22;16.35;;;3.38;;
59159;SDS011;44941;45.058;20.076;2023-10-09T11:40:48;17.52;;;10.32;;
59159;SDS011;44941;45.058;20.076;2023-10-09T11:43:17;97.47;;;66.53;;
59159;SDS011;44941;45.058;20.076;2023-10-09T11:45:49;118.88;;;76.22;;
59159;SDS011;44941;45.058;20.076;2023-10-09T11:48:21;46.42;;;28.75;;
59159;SDS011;44941;45.058;20.076;2023-10-09T11:50:58;99.47;;;62.47;;
59159;SDS011;44941;45.058;20.076;2023-10-09T11:53:27;63.25;;;39.20;;
59159;SDS011;44941;45.058;20.076;2023-10-09T11:55:53;17.63;;;9.43;;
59159;SDS011;44941;45.058;20.076;2023-10-09T11:58:20;23.55;;;12.00;;
59159;SDS011;44941;45.058;20.076;2023-10-09T12:00:50;12.00;;;5.75;;
59159;SDS011;44941;45.058;20.076;2023-10-09T12:03:22;68.55;;;18.20;;
59159;SDS011;44941;45.058;20.076;2023-10-09T12:05:53;28.77;;;13.88;;
59159;SDS011;44941;45.058;20.076;2023-10-09T12:08:21;26.13;;;13.25;;
59159;SDS011;44941;45.058;20.076;2023-10-09T12:10:47;19.50;;;6.82;;
59159;SDS011;44941;45.058;20.076;2023-10-09T12:13:13;13.38;;;5.50;;
59159;SDS011;44941;45.058;20.076;2023-10-09T12:15:40;18.07;;;8.13;;
59159;SDS011;44941;45.058;20.076;2023-10-09T12:18:11;13.18;;;6.63;;
59159;SDS011;44941;45.058;20.076;2023-10-09T12:20:41;13.10;;;5.22;;
59159;SDS011;44941;45.058;20.076;2023-10-09T12:23:08;11.93;;;5.82;;
59159;SDS011;44941;45.058;20.076;2023-10-09T12:25:39;8.60;;;4.43;;
59159;SDS011;44941;45.058;20.076;2023-10-09T12:28:09;15.38;;;6.28;;
59159;SDS011;44941;45.058;20.076;2023-10-09T12:30:37;17.48;;;6.95;;
59159;SDS011;44941;45.058;20.076;2023-10-09T12:33:07;15.90;;;7.93;;
59159;SDS011;44941;45.058;20.076;2023-10-09T12:35:37;13.30;;;6.47;;
59159;SDS011;44941;45.058;20.076;2023-10-09T12:38:04;12.20;;;6.75;;
59159;SDS011;44941;45.058;20.076;2023-10-09T12:40:34;12.85;;;6.70;;
59159;SDS011;44941;45.058;20.076;2023-10-09T12:43:01;16.80;;;7.00;;
59159;SDS011;44941;45.058;20.076;2023-10-09T12:45:27;17.08;;;8.82;;
59159;SDS011;44941;45.058;20.076;2023-10-09T12:47:57;12.35;;;6.80;;
59159;SDS011;44941;45.058;20.076;2023-10-09T12:50:34;10.48;;;4.38;;
59159;SDS011;44941;45.058;20.076;2023-10-09T12:53:06;10.57;;;4.45;;
59159;SDS011;44941;45.058;20.076;2023-10-09T12:55:36;14.73;;;4.50;;
59159;SDS011;44941;45.058;20.076;2023-10-09T12:58:05;10.13;;;4.32;;
59159;SDS011;44941;45.058;20.076;2023-10-09T13:00:33;11.98;;;4.82;;
59159;SDS011;44941;45.058;20.076;2023-10-09T13:03:02;11.48;;;5.28;;
59159;SDS011;44941;45.058;20.076;2023-10-09T13:05:38;17.13;;;8.35;;
59159;SDS011;44941;45.058;20.076;2023-10-09T13:08:16;20.17;;;10.85;;
59159;SDS011;44941;45.058;20.076;2023-10-09T13:10:45;23.00;;;12.00;;
59159;SDS011;44941;45.058;20.076;2023-10-09T13:13:11;21.20;;;11.68;;
59159;SDS011;44941;45.058;20.076;2023-10-09T13:15:37;26.88;;;10.48;;
59159;SDS011;44941;45.058;20.076;2023-10-09T13:18:08;17.35;;;8.25;;
59159;SDS011;44941;45.058;20.076;2023-10-09T13:20:34;21.67;;;12.25;;
59159;SDS011;44941;45.058;20.076;2023-10-09T13:23:01;24.52;;;14.02;;
59159;SDS011;44941;45.058;20.076;2023-10-09T13:25:27;25.92;;;13.40;;
59159;SDS011;44941;45.058;20.076;2023-10-09T13:28:04;44.28;;;10.30;;
59159;SDS011;44941;45.058;20.076;2023-10-09T13:30:30;409.33;;;41.33;;
59159;SDS011;44941;45.058;20.076;2023-10-09T13:33:04;119.25;;;15.98;;
59159;SDS011;44941;45.058;20.076;2023-10-09T13:35:30;188.18;;;24.75;;
59159;SDS011;44941;45.058;20.076;2023-10-09T13:38:03;1999.90;;;834.22;;
59159;SDS011;44941;45.058;20.076;2023-10-09T13:40:34;613.47;;;84.97;;
59159;SDS011;44941;45.058;20.076;2023-10-09T13:43:02;143.68;;;21.65;;
59159;SDS011;44941;45.058;20.076;2023-10-09T13:45:30;71.22;;;15.02;;
59159;SDS011;44941;45.058;20.076;2023-10-09T13:47:58;89.00;;;16.40;;
59159;SDS011;44941;45.058;20.076;2023-10-09T13:50:28;132.98;;;22.25;;
59159;SDS011;44941;45.058;20.076;2023-10-09T13:52:58;261.95;;;41.38;;
59159;SDS011;44941;45.058;20.076;2023-10-09T13:55:24;310.40;;;46.22;;
59159;SDS011;44941;45.058;20.076;2023-10-09T13:58:08;494.92;;;66.55;;
59159;SDS011;44941;45.058;20.076;2023-10-09T14:00:39;411.88;;;51.78;;
59159;SDS011;44941;45.058;20.076;2023-10-09T14:03:07;524.42;;;69.38;;
59159;SDS011;44941;45.058;20.076;2023-10-09T14:05:38;442.48;;;60.63;;
59159;SDS011;44941;45.058;20.076;2023-10-09T14:08:16;718.65;;;92.38;;
59159;SDS011;44941;45.058;20.076;2023-10-09T14:10:43;1999.90;;;404.60;;
59159;SDS011;44941;45.058;20.076;2023-10-09T14:13:13;803.35;;;112.45;;
59159;SDS011;44941;45.058;20.076;2023-10-09T14:15:39;665.40;;;89.57;;
59159;SDS011;44941;45.058;20.076;2023-10-09T14:18:07;126.75;;;19.85;;
59159;SDS011;44941;45.058;20.076;2023-10-09T14:20:39;78.72;;;11.90;;
59159;SDS011;44941;45.058;20.076;2023-10-09T14:23:06;568.05;;;77.35;;
59159;SDS011;44941;45.058;20.076;2023-10-09T14:28:07;680.33;;;85.30;;
59159;SDS011;44941;45.058;20.076;2023-10-09T14:30:36;1999.90;;;425.33;;
59159;SDS011;44941;45.058;20.076;2023-10-09T14:33:13;1506.53;;;206.38;;
59159;SDS011;44941;45.058;20.076;2023-10-09T14:35:43;738.20;;;93.60;;
59159;SDS011;44941;45.058;20.076;2023-10-09T14:38:10;337.70;;;40.08;;
59159;SDS011;44941;45.058;20.076;2023-10-09T14:40:43;68.60;;;8.40;;
59159;SDS011;44941;45.058;20.076;2023-10-09T14:43:09;73.13;;;9.15;;
59159;SDS011;44941;45.058;20.076;2023-10-09T14:45:50;16.35;;;4.40;;
59159;SDS011;44941;45.058;20.076;2023-10-09T14:48:18;89.35;;;9.73;;
59159;SDS011;44941;45.058;20.076;2023-10-09T14:50:51;38.45;;;6.15;;
59159;SDS011;44941;45.058;20.076;2023-10-09T14:53:18;18.70;;;4.38;;
59159;SDS011;44941;45.058;20.076;2023-10-09T14:55:58;9.05;;;4.22;;
59159;SDS011;44941;45.058;20.076;2023-10-09T14:58:29;92.38;;;10.18;;
59159;SDS011;44941;45.058;20.076;2023-10-09T15:00:57;1021.42;;;104.72;;
59159;SDS011;44941;45.058;20.076;2023-10-09T15:03:23;288.90;;;25.02;;
59159;SDS011;44941;45.058;20.076;2023-10-09T15:05:53;153.55;;;14.98;;
59159;SDS011;44941;45.058;20.076;2023-10-09T15:08:19;63.10;;;8.15;;
59159;SDS011;44941;45.058;20.076;2023-10-09T15:10:46;20.00;;;4.43;;
59159;SDS011;44941;45.058;20.076;2023-10-09T15:13:13;60.42;;;7.57;;
59159;SDS011;44941;45.058;20.076;2023-10-09T15:15:41;16.50;;;5.55;;
59159;SDS011;44941;45.058;20.076;2023-10-09T15:18:07;11.07;;;4.68;;
59159;SDS011;44941;45.058;20.076;2023-10-09T15:20:37;13.35;;;4.70;;
59159;SDS011;44941;45.058;20.076;2023-10-09T15:25:30;49.70;;;7.93;;
59159;SDS011;44941;45.058;20.076;2023-10-09T15:27:56;54.35;;;8.10;;
59159;SDS011;44941;45.058;20.076;2023-10-09T15:30:23;51.85;;;6.45;;
59159;SDS011;44941;45.058;20.076;2023-10-09T15:32:51;275.85;;;23.27;;
59159;SDS011;44941;45.058;20.076;2023-10-09T15:35:17;23.60;;;5.45;;
59159;SDS011;44941;45.058;20.076;2023-10-09T15:37:44;167.30;;;16.40;;
59159;SDS011;44941;45.058;20.076;2023-10-09T15:40:11;178.73;;;18.48;;
59159;SDS011;44941;45.058;20.076;2023-10-09T15:42:46;321.83;;;29.15;;
59159;SDS011;44941;45.058;20.076;2023-10-09T15:45:17;118.15;;;13.10;;
59159;SDS011;44941;45.058;20.076;2023-10-09T15:47:46;523.28;;;177.30;;